Terminal Aerodrome Forecast
Issued by NWS

Home | Current Version | Previous Version | Text Only | Print | Product List | Glossary On
Versions: 1 2 3 4 5 6 7 8 9 10 11 12 13 14 15 16 17 18 19 20 21 22 23 24 25
000
FTUS41 KBGM 231300 AAA
TAFELM
TAF AMD
KELM 231348Z 2314/2412 VRB02KT P6SM BKN002
     FM231430 25005KT P6SM SKC
     FM231600 28007KT P6SM FEW050
     FM232300 VRB05KT P6SM FEW050
      TEMPO 2403/2407 1SM BR
     FM240700 VRB03KT 1SM BR SCT001=

USA.gov is the U.S. government's official web portal to all federal, state and local government web resources and services.